sensor_id;sensor_type;location;lat;lon;timestamp;temperature;humidity
40636;DHT22;26642;55.766;37.828;2023-05-29T00:00:22;17.60;62.70
40636;DHT22;26642;55.766;37.828;2023-05-29T00:02:49;17.60;62.50
40636;DHT22;26642;55.766;37.828;2023-05-29T00:05:17;17.60;62.70
40636;DHT22;26642;55.766;37.828;2023-05-29T00:07:43;17.60;63.70
40636;DHT22;26642;55.766;37.828;2023-05-29T00:10:10;17.50;63.30
40636;DHT22;26642;55.766;37.828;2023-05-29T00:12:37;17.50;63.30
40636;DHT22;26642;55.766;37.828;2023-05-29T00:15:04;17.50;63.40
40636;DHT22;26642;55.766;37.828;2023-05-29T00:17:31;17.50;63.50
40636;DHT22;26642;55.766;37.828;2023-05-29T00:20:01;17.50;63.30
40636;DHT22;26642;55.766;37.828;2023-05-29T00:22:29;17.50;63.10
40636;DHT22;26642;55.766;37.828;2023-05-29T00:24:55;17.40;63.20
40636;DHT22;26642;55.766;37.828;2023-05-29T00:27:21;17.40;62.90
40636;DHT22;26642;55.766;37.828;2023-05-29T00:29:47;17.40;62.90
40636;DHT22;26642;55.766;37.828;2023-05-29T00:32:13;17.40;62.70
40636;DHT22;26642;55.766;37.828;2023-05-29T00:34:57;17.40;62.90
40636;DHT22;26642;55.766;37.828;2023-05-29T00:37:23;17.30;62.80
40636;DHT22;26642;55.766;37.828;2023-05-29T00:39:50;17.40;62.90
40636;DHT22;26642;55.766;37.828;2023-05-29T00:42:16;17.30;62.80
40636;DHT22;26642;55.766;37.828;2023-05-29T00:44:42;17.30;62.90
40636;DHT22;26642;55.766;37.828;2023-05-29T00:47:08;17.30;62.90
40636;DHT22;26642;55.766;37.828;2023-05-29T00:49:35;17.30;63.00
40636;DHT22;26642;55.766;37.828;2023-05-29T00:52:03;17.30;63.20
40636;DHT22;26642;55.766;37.828;2023-05-29T00:54:32;17.30;63.30
40636;DHT22;26642;55.766;37.828;2023-05-29T00:56:59;17.20;63.40
40636;DHT22;26642;55.766;37.828;2023-05-29T00:59:29;17.20;63.60
40636;DHT22;26642;55.766;37.828;2023-05-29T01:01:55;17.20;63.60
40636;DHT22;26642;55.766;37.828;2023-05-29T01:04:24;17.20;63.40
40636;DHT22;26642;55.766;37.828;2023-05-29T01:06:51;17.20;63.40
40636;DHT22;26642;55.766;37.828;2023-05-29T01:09:17;17.20;63.10
40636;DHT22;26642;55.766;37.828;2023-05-29T01:12:03;17.20;63.10
40636;DHT22;26642;55.766;37.828;2023-05-29T01:14:45;17.20;63.00
40636;DHT22;26642;55.766;37.828;2023-05-29T01:17:32;17.20;63.10
40636;DHT22;26642;55.766;37.828;2023-05-29T01:20:09;17.20;63.20
40636;DHT22;26642;55.766;37.828;2023-05-29T01:26:41;17.10;63.20
40636;DHT22;26642;55.766;37.828;2023-05-29T01:29:08;17.10;63.30
40636;DHT22;26642;55.766;37.828;2023-05-29T01:31:37;17.10;63.70
40636;DHT22;26642;55.766;37.828;2023-05-29T01:34:04;17.20;64.00
40636;DHT22;26642;55.766;37.828;2023-05-29T01:36:30;17.20;63.80
40636;DHT22;26642;55.766;37.828;2023-05-29T01:38:59;17.20;63.70
40636;DHT22;26642;55.766;37.828;2023-05-29T01:41:26;17.10;64.20
40636;DHT22;26642;55.766;37.828;2023-05-29T01:43:53;17.10;64.10
40636;DHT22;26642;55.766;37.828;2023-05-29T01:46:41;17.10;64.30
40636;DHT22;26642;55.766;37.828;2023-05-29T01:49:08;17.10;64.20
40636;DHT22;26642;55.766;37.828;2023-05-29T01:51:34;17.10;63.80
40636;DHT22;26642;55.766;37.828;2023-05-29T01:54:01;17.10;63.60
40636;DHT22;26642;55.766;37.828;2023-05-29T01:56:28;17.10;63.30
40636;DHT22;26642;55.766;37.828;2023-05-29T01:58:56;17.10;63.10
40636;DHT22;26642;55.766;37.828;2023-05-29T02:01:22;17.10;62.90
40636;DHT22;26642;55.766;37.828;2023-05-29T02:03:49;17.10;63.00
40636;DHT22;26642;55.766;37.828;2023-05-29T02:06:15;17.10;63.50
40636;DHT22;26642;55.766;37.828;2023-05-29T02:08:53;17.10;63.50
40636;DHT22;26642;55.766;37.828;2023-05-29T02:11:19;17.10;63.30
40636;DHT22;26642;55.766;37.828;2023-05-29T02:13:46;17.10;63.50
40636;DHT22;26642;55.766;37.828;2023-05-29T02:16:12;17.10;63.30
40636;DHT22;26642;55.766;37.828;2023-05-29T02:18:38;17.10;63.30
40636;DHT22;26642;55.766;37.828;2023-05-29T02:21:06;17.10;63.10
40636;DHT22;26642;55.766;37.828;2023-05-29T02:23:32;17.20;63.40
40636;DHT22;26642;55.766;37.828;2023-05-29T02:25:58;17.30;64.10
40636;DHT22;26642;55.766;37.828;2023-05-29T02:28:24;17.40;63.90
40636;DHT22;26642;55.766;37.828;2023-05-29T02:30:50;17.40;63.70
40636;DHT22;26642;55.766;37.828;2023-05-29T02:33:16;17.70;63.80
40636;DHT22;26642;55.766;37.828;2023-05-29T02:35:42;17.70;64.00
40636;DHT22;26642;55.766;37.828;2023-05-29T02:38:08;17.80;63.20
40636;DHT22;26642;55.766;37.828;2023-05-29T02:40:34;17.90;63.10
40636;DHT22;26642;55.766;37.828;2023-05-29T02:43:00;18.00;63.40
40636;DHT22;26642;55.766;37.828;2023-05-29T02:45:26;18.10;62.90
40636;DHT22;26642;55.766;37.828;2023-05-29T02:47:53;18.20;62.80
40636;DHT22;26642;55.766;37.828;2023-05-29T02:50:19;18.40;62.60
40636;DHT22;26642;55.766;37.828;2023-05-29T02:53:03;18.40;62.40
40636;DHT22;26642;55.766;37.828;2023-05-29T02:55:30;18.60;62.30
40636;DHT22;26642;55.766;37.828;2023-05-29T02:57:57;18.70;61.90
40636;DHT22;26642;55.766;37.828;2023-05-29T03:00:25;18.70;61.40
40636;DHT22;26642;55.766;37.828;2023-05-29T03:02:51;18.80;61.00
40636;DHT22;26642;55.766;37.828;2023-05-29T03:05:17;18.80;60.50
40636;DHT22;26642;55.766;37.828;2023-05-29T03:07:43;18.80;60.20
40636;DHT22;26642;55.766;37.828;2023-05-29T03:10:10;18.80;60.30
40636;DHT22;26642;55.766;37.828;2023-05-29T03:12:36;18.80;60.10
40636;DHT22;26642;55.766;37.828;2023-05-29T03:15:02;18.80;59.80
40636;DHT22;26642;55.766;37.828;2023-05-29T03:17:28;18.80;59.80
40636;DHT22;26642;55.766;37.828;2023-05-29T03:19:55;18.80;59.70
40636;DHT22;26642;55.766;37.828;2023-05-29T03:22:21;18.80;59.70
40636;DHT22;26642;55.766;37.828;2023-05-29T03:24:47;18.80;59.70
40636;DHT22;26642;55.766;37.828;2023-05-29T03:27:13;18.80;59.80
40636;DHT22;26642;55.766;37.828;2023-05-29T03:29:40;18.90;59.90
40636;DHT22;26642;55.766;37.828;2023-05-29T03:32:07;19.00;59.80
40636;DHT22;26642;55.766;37.828;2023-05-29T03:34:33;19.20;60.00
40636;DHT22;26642;55.766;37.828;2023-05-29T03:37:02;19.30;60.10
40636;DHT22;26642;55.766;37.828;2023-05-29T03:39:29;19.40;61.30
40636;DHT22;26642;55.766;37.828;2023-05-29T03:41:57;19.60;62.30
40636;DHT22;26642;55.766;37.828;2023-05-29T03:44:23;19.80;63.40
40636;DHT22;26642;55.766;37.828;2023-05-29T03:46:51;19.90;64.40
40636;DHT22;26642;55.766;37.828;2023-05-29T03:49:17;20.10;64.50
40636;DHT22;26642;55.766;37.828;2023-05-29T03:51:43;20.20;64.40
40636;DHT22;26642;55.766;37.828;2023-05-29T03:54:09;20.40;63.90
40636;DHT22;26642;55.766;37.828;2023-05-29T03:56:36;20.50;63.60
40636;DHT22;26642;55.766;37.828;2023-05-29T03:59:24;20.70;63.10
40636;DHT22;26642;55.766;37.828;2023-05-29T04:01:50;20.80;62.80
40636;DHT22;26642;55.766;37.828;2023-05-29T04:04:16;21.00;62.50
40636;DHT22;26642;55.766;37.828;2023-05-29T04:06:44;21.10;62.60
40636;DHT22;26642;55.766;37.828;2023-05-29T04:09:11;21.20;61.60
40636;DHT22;26642;55.766;37.828;2023-05-29T04:11:37;21.40;61.40
40636;DHT22;26642;55.766;37.828;2023-05-29T04:14:04;21.40;61.10
40636;DHT22;26642;55.766;37.828;2023-05-29T04:16:30;21.50;60.80
40636;DHT22;26642;55.766;37.828;2023-05-29T04:18:56;21.70;60.60
40636;DHT22;26642;55.766;37.828;2023-05-29T04:21:25;21.80;60.50
40636;DHT22;26642;55.766;37.828;2023-05-29T04:23:53;21.90;60.60
40636;DHT22;26642;55.766;37.828;2023-05-29T04:26:20;22.00;60.40
40636;DHT22;26642;55.766;37.828;2023-05-29T04:29:06;22.10;60.50
40636;DHT22;26642;55.766;37.828;2023-05-29T04:31:32;22.30;60.60
40636;DHT22;26642;55.766;37.828;2023-05-29T04:33:58;22.40;60.10
40636;DHT22;26642;55.766;37.828;2023-05-29T04:36:28;22.50;60.00
40636;DHT22;26642;55.766;37.828;2023-05-29T04:39:13;22.60;60.00
40636;DHT22;26642;55.766;37.828;2023-05-29T04:41:40;22.80;60.30
40636;DHT22;26642;55.766;37.828;2023-05-29T04:44:09;22.90;60.00
40636;DHT22;26642;55.766;37.828;2023-05-29T04:46:44;23.00;59.90
40636;DHT22;26642;55.766;37.828;2023-05-29T04:49:11;23.10;59.60
40636;DHT22;26642;55.766;37.828;2023-05-29T04:51:39;23.30;59.70
40636;DHT22;26642;55.766;37.828;2023-05-29T04:54:09;23.40;59.80
40636;DHT22;26642;55.766;37.828;2023-05-29T04:56:36;23.60;60.10
40636;DHT22;26642;55.766;37.828;2023-05-29T04:59:03;23.60;59.40
40636;DHT22;26642;55.766;37.828;2023-05-29T05:01:29;23.70;59.10
40636;DHT22;26642;55.766;37.828;2023-05-29T05:03:55;23.70;58.90
40636;DHT22;26642;55.766;37.828;2023-05-29T05:06:24;23.90;59.20
40636;DHT22;26642;55.766;37.828;2023-05-29T05:08:51;24.00;58.40
40636;DHT22;26642;55.766;37.828;2023-05-29T05:11:23;24.10;58.20
40636;DHT22;26642;55.766;37.828;2023-05-29T05:13:49;24.20;58.00
40636;DHT22;26642;55.766;37.828;2023-05-29T05:16:17;24.30;57.60
40636;DHT22;26642;55.766;37.828;2023-05-29T05:18:44;24.40;57.50
40636;DHT22;26642;55.766;37.828;2023-05-29T05:21:10;24.50;57.30
40636;DHT22;26642;55.766;37.828;2023-05-29T05:23:36;24.50;57.10
40636;DHT22;26642;55.766;37.828;2023-05-29T05:26:03;24.60;57.00
40636;DHT22;26642;55.766;37.828;2023-05-29T05:28:30;24.70;56.80
40636;DHT22;26642;55.766;37.828;2023-05-29T05:30:56;24.80;56.60
40636;DHT22;26642;55.766;37.828;2023-05-29T05:33:22;24.80;56.50
40636;DHT22;26642;55.766;37.828;2023-05-29T05:35:48;24.90;46.80
40636;DHT22;26642;55.766;37.828;2023-05-29T05:38:14;24.90;47.00
40636;DHT22;26642;55.766;37.828;2023-05-29T05:40:41;24.90;42.00
40636;DHT22;26642;55.766;37.828;2023-05-29T05:43:15;25.00;42.60
40636;DHT22;26642;55.766;37.828;2023-05-29T05:46:04;25.10;41.70
40636;DHT22;26642;55.766;37.828;2023-05-29T05:48:32;25.00;41.90
40636;DHT22;26642;55.766;37.828;2023-05-29T05:50:58;25.20;42.60
40636;DHT22;26642;55.766;37.828;2023-05-29T05:53:24;25.20;42.70
40636;DHT22;26642;55.766;37.828;2023-05-29T05:55:50;25.40;42.20
40636;DHT22;26642;55.766;37.828;2023-05-29T05:58:17;25.50;42.20
40636;DHT22;26642;55.766;37.828;2023-05-29T06:00:43;25.60;43.20
40636;DHT22;26642;55.766;37.828;2023-05-29T06:03:09;25.70;42.30
40636;DHT22;26642;55.766;37.828;2023-05-29T06:05:58;25.50;40.60
40636;DHT22;26642;55.766;37.828;2023-05-29T06:08:24;25.60;39.70
40636;DHT22;26642;55.766;37.828;2023-05-29T06:10:51;25.60;40.30
40636;DHT22;26642;55.766;37.828;2023-05-29T06:13:18;25.70;40.50
40636;DHT22;26642;55.766;37.828;2023-05-29T06:15:51;25.80;40.60
40636;DHT22;26642;55.766;37.828;2023-05-29T06:18:17;25.60;39.30
40636;DHT22;26642;55.766;37.828;2023-05-29T06:20:43;25.70;40.30
40636;DHT22;26642;55.766;37.828;2023-05-29T06:23:10;25.80;39.40
40636;DHT22;26642;55.766;37.828;2023-05-29T06:25:37;25.80;41.60
40636;DHT22;26642;55.766;37.828;2023-05-29T06:28:05;25.90;39.90
40636;DHT22;26642;55.766;37.828;2023-05-29T06:30:34;25.90;37.60
40636;DHT22;26642;55.766;37.828;2023-05-29T06:33:05;25.80;37.90
40636;DHT22;26642;55.766;37.828;2023-05-29T06:35:31;25.80;36.90
40636;DHT22;26642;55.766;37.828;2023-05-29T06:37:57;25.80;38.20
40636;DHT22;26642;55.766;37.828;2023-05-29T06:40:23;25.80;38.10
40636;DHT22;26642;55.766;37.828;2023-05-29T06:42:49;25.90;38.60
40636;DHT22;26642;55.766;37.828;2023-05-29T06:45:15;26.00;38.00
40636;DHT22;26642;55.766;37.828;2023-05-29T06:47:44;25.90;37.20
40636;DHT22;26642;55.766;37.828;2023-05-29T06:50:11;26.00;38.70
40636;DHT22;26642;55.766;37.828;2023-05-29T06:52:37;26.00;37.80
40636;DHT22;26642;55.766;37.828;2023-05-29T06:55:15;26.00;38.30
40636;DHT22;26642;55.766;37.828;2023-05-29T06:57:41;26.00;37.30
40636;DHT22;26642;55.766;37.828;2023-05-29T07:00:08;26.00;36.10
40636;DHT22;26642;55.766;37.828;2023-05-29T07:02:41;25.90;38.70
40636;DHT22;26642;55.766;37.828;2023-05-29T07:05:07;25.90;38.40
40636;DHT22;26642;55.766;37.828;2023-05-29T07:07:34;26.00;38.40
40636;DHT22;26642;55.766;37.828;2023-05-29T07:10:01;26.10;38.50
40636;DHT22;26642;55.766;37.828;2023-05-29T07:12:27;26.10;38.60
40636;DHT22;26642;55.766;37.828;2023-05-29T07:14:53;26.00;37.10
40636;DHT22;26642;55.766;37.828;2023-05-29T07:17:19;26.10;37.80
40636;DHT22;26642;55.766;37.828;2023-05-29T07:19:49;26.10;37.80
40636;DHT22;26642;55.766;37.828;2023-05-29T07:22:16;26.10;36.90
40636;DHT22;26642;55.766;37.828;2023-05-29T07:24:42;26.00;37.10
40636;DHT22;26642;55.766;37.828;2023-05-29T07:27:08;26.10;37.90
40636;DHT22;26642;55.766;37.828;2023-05-29T07:29:34;26.10;37.30
40636;DHT22;26642;55.766;37.828;2023-05-29T07:32:00;26.10;37.10
40636;DHT22;26642;55.766;37.828;2023-05-29T07:34:27;26.10;36.90
40636;DHT22;26642;55.766;37.828;2023-05-29T07:37:06;25.90;36.70
40636;DHT22;26642;55.766;37.828;2023-05-29T07:39:34;25.90;36.40
40636;DHT22;26642;55.766;37.828;2023-05-29T07:42:08;25.80;36.70
40636;DHT22;26642;55.766;37.828;2023-05-29T07:44:36;25.80;36.40
40636;DHT22;26642;55.766;37.828;2023-05-29T07:47:02;25.70;35.50
40636;DHT22;26642;55.766;37.828;2023-05-29T07:49:39;25.80;36.50
40636;DHT22;26642;55.766;37.828;2023-05-29T07:52:07;25.70;35.20
40636;DHT22;26642;55.766;37.828;2023-05-29T07:54:33;25.60;36.80
40636;DHT22;26642;55.766;37.828;2023-05-29T07:57:01;25.60;36.40
40636;DHT22;26642;55.766;37.828;2023-05-29T07:59:30;25.60;37.00
40636;DHT22;26642;55.766;37.828;2023-05-29T08:01:59;25.50;35.10
40636;DHT22;26642;55.766;37.828;2023-05-29T08:04:42;25.40;36.30
40636;DHT22;26642;55.766;37.828;2023-05-29T08:07:09;25.40;37.60
40636;DHT22;26642;55.766;37.828;2023-05-29T08:09:35;25.40;36.30
40636;DHT22;26642;55.766;37.828;2023-05-29T08:12:02;25.30;35.30
40636;DHT22;26642;55.766;37.828;2023-05-29T08:14:28;25.30;36.10
40636;DHT22;26642;55.766;37.828;2023-05-29T08:16:55;25.30;36.80
40636;DHT22;26642;55.766;37.828;2023-05-29T08:19:21;25.40;35.80
40636;DHT22;26642;55.766;37.828;2023-05-29T08:21:47;25.30;34.90
40636;DHT22;26642;55.766;37.828;2023-05-29T08:24:13;25.20;36.70
40636;DHT22;26642;55.766;37.828;2023-05-29T08:26:40;25.10;35.60
40636;DHT22;26642;55.766;37.828;2023-05-29T08:29:06;25.10;36.70
40636;DHT22;26642;55.766;37.828;2023-05-29T08:31:32;25.00;36.00
40636;DHT22;26642;55.766;37.828;2023-05-29T08:33:58;25.00;36.10
40636;DHT22;26642;55.766;37.828;2023-05-29T08:36:25;24.90;36.90
40636;DHT22;26642;55.766;37.828;2023-05-29T08:38:51;24.80;35.70
40636;DHT22;26642;55.766;37.828;2023-05-29T08:41:49;24.70;36.20
40636;DHT22;26642;55.766;37.828;2023-05-29T08:44:22;24.70;37.60
40636;DHT22;26642;55.766;37.828;2023-05-29T08:46:54;24.80;37.80
40636;DHT22;26642;55.766;37.828;2023-05-29T08:49:21;24.80;37.80
40636;DHT22;26642;55.766;37.828;2023-05-29T08:52:00;24.80;38.40
40636;DHT22;26642;55.766;37.828;2023-05-29T08:54:31;24.80;38.00
40636;DHT22;26642;55.766;37.828;2023-05-29T08:56:59;24.70;37.70
40636;DHT22;26642;55.766;37.828;2023-05-29T08:59:26;24.70;37.80
40636;DHT22;26642;55.766;37.828;2023-05-29T09:01:52;24.70;38.10
40636;DHT22;26642;55.766;37.828;2023-05-29T09:04:18;24.60;39.10
40636;DHT22;26642;55.766;37.828;2023-05-29T09:06:45;24.70;38.30
40636;DHT22;26642;55.766;37.828;2023-05-29T09:09:12;24.60;38.50
40636;DHT22;26642;55.766;37.828;2023-05-29T09:11:38;24.50;38.70
40636;DHT22;26642;55.766;37.828;2023-05-29T09:14:04;24.50;38.60
40636;DHT22;26642;55.766;37.828;2023-05-29T09:16:30;24.50;39.10
40636;DHT22;26642;55.766;37.828;2023-05-29T09:19:06;24.50;39.20
40636;DHT22;26642;55.766;37.828;2023-05-29T09:21:36;24.50;37.80
40636;DHT22;26642;55.766;37.828;2023-05-29T09:24:05;24.40;39.00
40636;DHT22;26642;55.766;37.828;2023-05-29T09:26:32;24.40;36.80
40636;DHT22;26642;55.766;37.828;2023-05-29T09:28:58;24.30;36.60
40636;DHT22;26642;55.766;37.828;2023-05-29T09:31:24;24.20;38.60
40636;DHT22;26642;55.766;37.828;2023-05-29T09:33:50;24.20;38.70
40636;DHT22;26642;55.766;37.828;2023-05-29T09:36:21;24.20;38.50
40636;DHT22;26642;55.766;37.828;2023-05-29T09:38:48;24.10;38.50
40636;DHT22;26642;55.766;37.828;2023-05-29T09:41:19;24.10;38.60
40636;DHT22;26642;55.766;37.828;2023-05-29T09:43:46;24.00;37.20
40636;DHT22;26642;55.766;37.828;2023-05-29T09:46:15;24.00;37.70
40636;DHT22;26642;55.766;37.828;2023-05-29T09:48:43;24.00;38.40
40636;DHT22;26642;55.766;37.828;2023-05-29T09:51:20;23.90;37.50
40636;DHT22;26642;55.766;37.828;2023-05-29T09:53:48;23.90;38.00
40636;DHT22;26642;55.766;37.828;2023-05-29T09:56:15;23.80;36.80
40636;DHT22;26642;55.766;37.828;2023-05-29T09:58:43;23.80;37.70
40636;DHT22;26642;55.766;37.828;2023-05-29T10:01:13;23.70;37.10
40636;DHT22;26642;55.766;37.828;2023-05-29T10:03:38;23.70;38.10
40636;DHT22;26642;55.766;37.828;2023-05-29T10:06:06;23.60;38.70
40636;DHT22;26642;55.766;37.828;2023-05-29T10:08:42;23.70;38.30
40636;DHT22;26642;55.766;37.828;2023-05-29T10:11:11;23.70;39.20
40636;DHT22;26642;55.766;37.828;2023-05-29T10:13:42;23.70;38.40
40636;DHT22;26642;55.766;37.828;2023-05-29T10:16:14;23.70;39.40
40636;DHT22;26642;55.766;37.828;2023-05-29T10:18:44;23.70;39.00
40636;DHT22;26642;55.766;37.828;2023-05-29T10:21:15;23.70;39.30
40636;DHT22;26642;55.766;37.828;2023-05-29T10:23:49;23.70;38.90
40636;DHT22;26642;55.766;37.828;2023-05-29T10:26:22;23.60;38.50
40636;DHT22;26642;55.766;37.828;2023-05-29T10:29:12;23.60;38.60
40636;DHT22;26642;55.766;37.828;2023-05-29T10:32:01;23.60;38.70
40636;DHT22;26642;55.766;37.828;2023-05-29T10:34:43;23.60;38.90
40636;DHT22;26642;55.766;37.828;2023-05-29T10:40:07;23.50;38.10
40636;DHT22;26642;55.766;37.828;2023-05-29T10:42:46;23.40;37.00
40636;DHT22;26642;55.766;37.828;2023-05-29T10:50:37;23.10;37.30
40636;DHT22;26642;55.766;37.828;2023-05-29T10:53:07;23.10;37.70
40636;DHT22;26642;55.766;37.828;2023-05-29T10:55:40;23.10;38.10
40636;DHT22;26642;55.766;37.828;2023-05-29T10:58:12;23.10;39.40
40636;DHT22;26642;55.766;37.828;2023-05-29T11:00:42;23.10;37.70
40636;DHT22;26642;55.766;37.828;2023-05-29T11:03:09;23.10;37.90
40636;DHT22;26642;55.766;37.828;2023-05-29T11:06:00;23.10;37.50
40636;DHT22;26642;55.766;37.828;2023-05-29T11:08:58;23.10;37.70
40636;DHT22;26642;55.766;37.828;2023-05-29T11:11:32;23.10;36.80
40636;DHT22;26642;55.766;37.828;2023-05-29T11:14:03;23.00;36.30
40636;DHT22;26642;55.766;37.828;2023-05-29T11:18:57;23.00;38.50
40636;DHT22;26642;55.766;37.828;2023-05-29T11:21:33;23.00;38.20
40636;DHT22;26642;55.766;37.828;2023-05-29T11:24:01;23.00;37.60
40636;DHT22;26642;55.766;37.828;2023-05-29T11:26:35;23.00;37.10
40636;DHT22;26642;55.766;37.828;2023-05-29T11:29:06;23.00;37.30
40636;DHT22;26642;55.766;37.828;2023-05-29T11:31:37;22.90;38.30
40636;DHT22;26642;55.766;37.828;2023-05-29T11:34:04;23.00;37.90
40636;DHT22;26642;55.766;37.828;2023-05-29T11:36:32;22.90;37.80
40636;DHT22;26642;55.766;37.828;2023-05-29T11:38:59;22.90;37.80
40636;DHT22;26642;55.766;37.828;2023-05-29T11:41:26;22.90;37.50
40636;DHT22;26642;55.766;37.828;2023-05-29T11:44:02;22.90;36.30
40636;DHT22;26642;55.766;37.828;2023-05-29T11:46:29;22.90;35.80
40636;DHT22;26642;55.766;37.828;2023-05-29T11:48:59;22.90;36.80
40636;DHT22;26642;55.766;37.828;2023-05-29T11:51:25;22.80;37.90
40636;DHT22;26642;55.766;37.828;2023-05-29T11:53:51;22.80;38.50
40636;DHT22;26642;55.766;37.828;2023-05-29T11:56:24;22.90;37.20
40636;DHT22;26642;55.766;37.828;2023-05-29T11:58:51;22.80;36.70
40636;DHT22;26642;55.766;37.828;2023-05-29T12:01:22;22.80;36.10
40636;DHT22;26642;55.766;37.828;2023-05-29T12:03:52;22.80;36.10
40636;DHT22;26642;55.766;37.828;2023-05-29T12:06:34;22.80;36.50
40636;DHT22;26642;55.766;37.828;2023-05-29T12:09:02;22.80;36.40
40636;DHT22;26642;55.766;37.828;2023-05-29T12:11:30;22.80;37.60
40636;DHT22;26642;55.766;37.828;2023-05-29T12:13:59;22.80;38.60
40636;DHT22;26642;55.766;37.828;2023-05-29T12:16:27;22.80;37.40
40636;DHT22;26642;55.766;37.828;2023-05-29T12:18:54;22.80;36.60
40636;DHT22;26642;55.766;37.828;2023-05-29T12:21:21;22.80;37.10
40636;DHT22;26642;55.766;37.828;2023-05-29T12:23:48;22.80;38.40
40636;DHT22;26642;55.766;37.828;2023-05-29T12:26:16;22.70;38.80
40636;DHT22;26642;55.766;37.828;2023-05-29T12:28:44;22.80;39.20
40636;DHT22;26642;55.766;37.828;2023-05-29T12:31:11;22.80;38.10
40636;DHT22;26642;55.766;37.828;2023-05-29T12:33:42;22.80;38.20
40636;DHT22;26642;55.766;37.828;2023-05-29T12:36:09;22.80;37.80
40636;DHT22;26642;55.766;37.828;2023-05-29T12:41:26;22.70;37.90
40636;DHT22;26642;55.766;37.828;2023-05-29T12:43:53;22.70;39.00
40636;DHT22;26642;55.766;37.828;2023-05-29T12:46:21;22.70;39.50
40636;DHT22;26642;55.766;37.828;2023-05-29T12:48:47;22.70;38.30
40636;DHT22;26642;55.766;37.828;2023-05-29T12:51:13;22.80;39.30
40636;DHT22;26642;55.766;37.828;2023-05-29T12:53:39;22.80;39.90
40636;DHT22;26642;55.766;37.828;2023-05-29T12:56:05;22.80;38.80
40636;DHT22;26642;55.766;37.828;2023-05-29T12:58:31;22.80;37.90
40636;DHT22;26642;55.766;37.828;2023-05-29T13:00:57;22.80;38.10
40636;DHT22;26642;55.766;37.828;2023-05-29T13:03:23;22.70;38.40
40636;DHT22;26642;55.766;37.828;2023-05-29T13:05:50;22.80;38.30
40636;DHT22;26642;55.766;37.828;2023-05-29T13:08:16;22.70;38.30
40636;DHT22;26642;55.766;37.828;2023-05-29T13:10:44;22.80;37.30
40636;DHT22;26642;55.766;37.828;2023-05-29T13:13:11;22.80;37.60
40636;DHT22;26642;55.766;37.828;2023-05-29T13:15:38;22.70;38.00
40636;DHT22;26642;55.766;37.828;2023-05-29T13:18:06;22.60;37.10
40636;DHT22;26642;55.766;37.828;2023-05-29T13:20:32;22.60;37.90
40636;DHT22;26642;55.766;37.828;2023-05-29T13:22:59;22.60;37.80
40636;DHT22;26642;55.766;37.828;2023-05-29T13:25:25;22.60;38.50
40636;DHT22;26642;55.766;37.828;2023-05-29T13:27:52;22.60;39.30
40636;DHT22;26642;55.766;37.828;2023-05-29T13:30:18;22.60;38.90
40636;DHT22;26642;55.766;37.828;2023-05-29T13:32:44;22.70;38.90
40636;DHT22;26642;55.766;37.828;2023-05-29T13:35:10;22.60;38.10
40636;DHT22;26642;55.766;37.828;2023-05-29T13:37:37;22.60;38.40
40636;DHT22;26642;55.766;37.828;2023-05-29T13:40:04;22.60;38.30
40636;DHT22;26642;55.766;37.828;2023-05-29T13:42:31;22.60;37.30
40636;DHT22;26642;55.766;37.828;2023-05-29T13:44:57;22.50;37.60
40636;DHT22;26642;55.766;37.828;2023-05-29T13:47:23;22.50;37.50
40636;DHT22;26642;55.766;37.828;2023-05-29T13:49:49;22.50;37.70
40636;DHT22;26642;55.766;37.828;2023-05-29T13:52:15;22.50;37.30
40636;DHT22;26642;55.766;37.828;2023-05-29T13:54:42;22.50;38.00
40636;DHT22;26642;55.766;37.828;2023-05-29T13:57:08;22.50;38.30
40636;DHT22;26642;55.766;37.828;2023-05-29T13:59:34;22.50;38.00
40636;DHT22;26642;55.766;37.828;2023-05-29T14:02:01;22.50;37.80
40636;DHT22;26642;55.766;37.828;2023-05-29T14:04:31;22.50;37.10
40636;DHT22;26642;55.766;37.828;2023-05-29T14:06:57;22.50;37.10
40636;DHT22;26642;55.766;37.828;2023-05-29T14:09:24;22.50;37.90
40636;DHT22;26642;55.766;37.828;2023-05-29T14:11:58;22.50;37.70
40636;DHT22;26642;55.766;37.828;2023-05-29T14:14:25;22.50;37.30
40636;DHT22;26642;55.766;37.828;2023-05-29T14:16:51;22.40;37.40
40636;DHT22;26642;55.766;37.828;2023-05-29T14:19:18;22.40;37.10
40636;DHT22;26642;55.766;37.828;2023-05-29T14:21:45;22.40;37.70
40636;DHT22;26642;55.766;37.828;2023-05-29T14:24:11;22.50;37.90
40636;DHT22;26642;55.766;37.828;2023-05-29T14:26:37;22.40;38.40
40636;DHT22;26642;55.766;37.828;2023-05-29T14:29:03;22.40;39.20
40636;DHT22;26642;55.766;37.828;2023-05-29T14:31:30;22.40;39.10
40636;DHT22;26642;55.766;37.828;2023-05-29T14:33:56;22.40;38.60
40636;DHT22;26642;55.766;37.828;2023-05-29T14:36:22;22.40;39.60
40636;DHT22;26642;55.766;37.828;2023-05-29T14:38:48;22.40;38.80
40636;DHT22;26642;55.766;37.828;2023-05-29T14:41:15;22.40;39.40
40636;DHT22;26642;55.766;37.828;2023-05-29T14:43:44;22.40;39.10
40636;DHT22;26642;55.766;37.828;2023-05-29T14:46:10;22.50;39.50
40636;DHT22;26642;55.766;37.828;2023-05-29T14:48:37;22.40;39.10
40636;DHT22;26642;55.766;37.828;2023-05-29T14:51:03;22.40;38.80
40636;DHT22;26642;55.766;37.828;2023-05-29T14:53:29;22.40;39.10
40636;DHT22;26642;55.766;37.828;2023-05-29T14:55:57;22.40;38.80
40636;DHT22;26642;55.766;37.828;2023-05-29T14:58:23;22.40;39.60
40636;DHT22;26642;55.766;37.828;2023-05-29T15:00:49;22.40;39.00
40636;DHT22;26642;55.766;37.828;2023-05-29T15:03:15;22.40;38.80
40636;DHT22;26642;55.766;37.828;2023-05-29T15:05:41;22.40;39.20
40636;DHT22;26642;55.766;37.828;2023-05-29T15:08:07;22.40;40.00
40636;DHT22;26642;55.766;37.828;2023-05-29T15:10:33;22.40;39.70
40636;DHT22;26642;55.766;37.828;2023-05-29T15:12:59;22.30;40.10
40636;DHT22;26642;55.766;37.828;2023-05-29T15:15:28;22.30;39.40
40636;DHT22;26642;55.766;37.828;2023-05-29T15:17:54;22.30;39.40
40636;DHT22;26642;55.766;37.828;2023-05-29T15:20:24;22.40;39.40
40636;DHT22;26642;55.766;37.828;2023-05-29T15:22:51;22.30;39.50
40636;DHT22;26642;55.766;37.828;2023-05-29T15:25:18;22.30;39.40
40636;DHT22;26642;55.766;37.828;2023-05-29T15:27:44;22.30;39.30
40636;DHT22;26642;55.766;37.828;2023-05-29T15:32:42;22.30;38.60
40636;DHT22;26642;55.766;37.828;2023-05-29T15:35:09;22.30;38.50
40636;DHT22;26642;55.766;37.828;2023-05-29T15:37:35;22.30;38.70
40636;DHT22;26642;55.766;37.828;2023-05-29T15:40:02;22.20;38.50
40636;DHT22;26642;55.766;37.828;2023-05-29T15:42:29;22.30;38.40